sensor_id;sensor_type;location;lat;lon;timestamp;P1;durP1;ratioP1;P2;durP2;ratioP2
32812;SDS011;19162;48.254;11.454;2023-02-01T00:02:50;3.38;;;3.08;;
32812;SDS011;19162;48.254;11.454;2023-02-01T00:05:59;3.80;;;3.42;;
32812;SDS011;19162;48.254;11.454;2023-02-01T00:09:00;4.93;;;3.92;;
32812;SDS011;19162;48.254;11.454;2023-02-01T00:12:00;4.07;;;3.77;;
32812;SDS011;19162;48.254;11.454;2023-02-01T00:15:01;4.15;;;3.75;;
32812;SDS011;19162;48.254;11.454;2023-02-01T00:18:02;4.10;;;3.70;;
32812;SDS011;19162;48.254;11.454;2023-02-01T00:21:02;3.77;;;3.47;;
32812;SDS011;19162;48.254;11.454;2023-02-01T00:24:02;4.67;;;3.70;;
32812;SDS011;19162;48.254;11.454;2023-02-01T00:27:02;4.47;;;3.43;;
32812;SDS011;19162;48.254;11.454;2023-02-01T00:30:03;3.63;;;3.30;;
32812;SDS011;19162;48.254;11.454;2023-02-01T00:33:03;4.35;;;3.40;;
32812;SDS011;19162;48.254;11.454;2023-02-01T00:36:04;4.53;;;4.13;;
32812;SDS011;19162;48.254;11.454;2023-02-01T00:39:05;4.28;;;3.88;;
32812;SDS011;19162;48.254;11.454;2023-02-01T00:42:05;4.80;;;4.40;;
32812;SDS011;19162;48.254;11.454;2023-02-01T00:45:05;4.97;;;4.32;;
32812;SDS011;19162;48.254;11.454;2023-02-01T00:48:06;5.75;;;5.18;;
32812;SDS011;19162;48.254;11.454;2023-02-01T00:51:07;4.97;;;4.60;;
32812;SDS011;19162;48.254;11.454;2023-02-01T00:54:07;5.80;;;4.90;;
32812;SDS011;19162;48.254;11.454;2023-02-01T00:57:07;5.70;;;5.10;;
32812;SDS011;19162;48.254;11.454;2023-02-01T01:00:08;5.60;;;5.10;;
32812;SDS011;19162;48.254;11.454;2023-02-01T01:03:08;6.07;;;5.53;;
32812;SDS011;19162;48.254;11.454;2023-02-01T01:06:19;6.28;;;5.70;;
32812;SDS011;19162;48.254;11.454;2023-02-01T01:09:19;6.63;;;5.85;;
32812;SDS011;19162;48.254;11.454;2023-02-01T01:12:20;6.60;;;6.00;;
32812;SDS011;19162;48.254;11.454;2023-02-01T01:15:20;5.82;;;5.35;;
32812;SDS011;19162;48.254;11.454;2023-02-01T01:18:20;6.30;;;5.70;;
32812;SDS011;19162;48.254;11.454;2023-02-01T01:21:20;6.57;;;5.97;;
32812;SDS011;19162;48.254;11.454;2023-02-01T01:24:20;6.80;;;6.27;;
32812;SDS011;19162;48.254;11.454;2023-02-01T01:27:21;6.93;;;6.33;;
32812;SDS011;19162;48.254;11.454;2023-02-01T01:33:24;6.80;;;6.13;;
32812;SDS011;19162;48.254;11.454;2023-02-01T01:36:25;7.32;;;6.38;;
32812;SDS011;19162;48.254;11.454;2023-02-01T01:39:25;6.90;;;6.35;;
32812;SDS011;19162;48.254;11.454;2023-02-01T01:42:25;7.20;;;6.10;;
32812;SDS011;19162;48.254;11.454;2023-02-01T01:48:27;6.47;;;5.93;;
32812;SDS011;19162;48.254;11.454;2023-02-01T01:51:28;6.65;;;5.90;;
32812;SDS011;19162;48.254;11.454;2023-02-01T01:54:36;7.75;;;6.78;;
32812;SDS011;19162;48.254;11.454;2023-02-01T01:57:38;7.32;;;6.68;;
32812;SDS011;19162;48.254;11.454;2023-02-01T02:00:39;6.65;;;6.05;;
32812;SDS011;19162;48.254;11.454;2023-02-01T02:03:43;5.97;;;5.47;;
32812;SDS011;19162;48.254;11.454;2023-02-01T02:06:45;6.47;;;5.70;;
32812;SDS011;19162;48.254;11.454;2023-02-01T02:09:47;6.40;;;5.80;;
32812;SDS011;19162;48.254;11.454;2023-02-01T02:12:48;7.17;;;6.57;;
32812;SDS011;19162;48.254;11.454;2023-02-01T02:15:52;6.80;;;6.20;;
32812;SDS011;19162;48.254;11.454;2023-02-01T02:34:54;6.25;;;5.75;;
32812;SDS011;19162;48.254;11.454;2023-02-01T02:38:16;5.97;;;5.47;;
32812;SDS011;19162;48.254;11.454;2023-02-01T02:44:47;6.28;;;5.78;;
32812;SDS011;19162;48.254;11.454;2023-02-01T02:48:12;6.00;;;5.40;;
32812;SDS011;19162;48.254;11.454;2023-02-01T02:51:20;5.90;;;5.40;;
32812;SDS011;19162;48.254;11.454;2023-02-01T02:54:43;5.97;;;5.47;;
32812;SDS011;19162;48.254;11.454;2023-02-01T02:57:51;5.70;;;5.30;;
32812;SDS011;19162;48.254;11.454;2023-02-01T03:01:11;6.68;;;6.07;;
32812;SDS011;19162;48.254;11.454;2023-02-01T03:04:29;5.95;;;5.45;;
32812;SDS011;19162;48.254;11.454;2023-02-01T03:07:46;6.72;;;6.13;;
32812;SDS011;19162;48.254;11.454;2023-02-01T03:16:55;5.88;;;5.38;;
32812;SDS011;19162;48.254;11.454;2023-02-01T03:19:58;5.97;;;5.47;;
32812;SDS011;19162;48.254;11.454;2023-02-01T03:22:59;5.07;;;4.68;;
32812;SDS011;19162;48.254;11.454;2023-02-01T03:25:59;5.88;;;5.38;;
32812;SDS011;19162;48.254;11.454;2023-02-01T03:29:03;5.13;;;4.68;;
32812;SDS011;19162;48.254;11.454;2023-02-01T03:32:05;5.82;;;5.43;;
32812;SDS011;19162;48.254;11.454;2023-02-01T03:35:05;5.47;;;4.97;;
32812;SDS011;19162;48.254;11.454;2023-02-01T03:41:15;5.72;;;5.22;;
32812;SDS011;19162;48.254;11.454;2023-02-01T03:44:19;5.30;;;4.80;;
32812;SDS011;19162;48.254;11.454;2023-02-01T03:47:23;5.72;;;5.32;;
32812;SDS011;19162;48.254;11.454;2023-02-01T03:50:24;5.93;;;4.95;;
32812;SDS011;19162;48.254;11.454;2023-02-01T03:53:25;5.70;;;5.20;;
32812;SDS011;19162;48.254;11.454;2023-02-01T03:56:27;5.78;;;5.30;;
32812;SDS011;19162;48.254;11.454;2023-02-01T03:59:28;5.40;;;5.00;;
32812;SDS011;19162;48.254;11.454;2023-02-01T04:02:28;5.57;;;5.00;;
32812;SDS011;19162;48.254;11.454;2023-02-01T04:05:28;5.75;;;5.25;;
32812;SDS011;19162;48.254;11.454;2023-02-01T04:08:28;5.57;;;5.13;;
32812;SDS011;19162;48.254;11.454;2023-02-01T04:11:28;5.00;;;4.55;;
32812;SDS011;19162;48.254;11.454;2023-02-01T04:14:29;5.57;;;5.05;;
32812;SDS011;19162;48.254;11.454;2023-02-01T04:17:29;5.70;;;5.18;;
32812;SDS011;19162;48.254;11.454;2023-02-01T04:20:29;6.33;;;4.80;;
32812;SDS011;19162;48.254;11.454;2023-02-01T04:23:29;6.40;;;5.13;;
32812;SDS011;19162;48.254;11.454;2023-02-01T04:26:31;6.03;;;4.95;;
32812;SDS011;19162;48.254;11.454;2023-02-01T04:29:31;4.78;;;4.38;;
32812;SDS011;19162;48.254;11.454;2023-02-01T04:32:31;5.00;;;4.57;;
32812;SDS011;19162;48.254;11.454;2023-02-01T04:35:31;4.93;;;4.50;;
32812;SDS011;19162;48.254;11.454;2023-02-01T04:38:32;4.72;;;4.10;;
32812;SDS011;19162;48.254;11.454;2023-02-01T04:41:32;5.20;;;4.80;;
32812;SDS011;19162;48.254;11.454;2023-02-01T04:44:32;5.32;;;4.82;;
32812;SDS011;19162;48.254;11.454;2023-02-01T04:47:32;5.35;;;4.85;;
32812;SDS011;19162;48.254;11.454;2023-02-01T04:50:32;4.23;;;3.93;;
32812;SDS011;19162;48.254;11.454;2023-02-01T04:53:33;4.65;;;4.25;;
32812;SDS011;19162;48.254;11.454;2023-02-01T04:56:33;5.40;;;4.78;;
32812;SDS011;19162;48.254;11.454;2023-02-01T04:59:35;4.60;;;4.22;;
32812;SDS011;19162;48.254;11.454;2023-02-01T05:02:35;5.22;;;4.72;;
32812;SDS011;19162;48.254;11.454;2023-02-01T05:05:36;4.95;;;4.55;;
32812;SDS011;19162;48.254;11.454;2023-02-01T05:08:36;4.90;;;4.50;;
32812;SDS011;19162;48.254;11.454;2023-02-01T05:11:36;5.38;;;4.85;;
32812;SDS011;19162;48.254;11.454;2023-02-01T05:14:55;4.90;;;4.50;;
32812;SDS011;19162;48.254;11.454;2023-02-01T05:17:56;4.93;;;4.35;;
32812;SDS011;19162;48.254;11.454;2023-02-01T05:20:56;5.40;;;4.90;;
32812;SDS011;19162;48.254;11.454;2023-02-01T05:23:56;5.78;;;5.20;;
32812;SDS011;19162;48.254;11.454;2023-02-01T05:27:09;5.53;;;5.10;;
32812;SDS011;19162;48.254;11.454;2023-02-01T05:30:09;5.43;;;4.68;;
32812;SDS011;19162;48.254;11.454;2023-02-01T05:33:09;5.13;;;4.70;;
32812;SDS011;19162;48.254;11.454;2023-02-01T05:36:10;5.72;;;5.00;;
32812;SDS011;19162;48.254;11.454;2023-02-01T05:39:10;4.97;;;4.47;;
32812;SDS011;19162;48.254;11.454;2023-02-01T05:42:10;5.68;;;5.18;;
32812;SDS011;19162;48.254;11.454;2023-02-01T05:45:10;5.47;;;4.97;;
32812;SDS011;19162;48.254;11.454;2023-02-01T05:48:11;5.22;;;4.72;;
32812;SDS011;19162;48.254;11.454;2023-02-01T05:51:11;5.50;;;4.85;;
32812;SDS011;19162;48.254;11.454;2023-02-01T05:54:12;5.05;;;4.65;;
32812;SDS011;19162;48.254;11.454;2023-02-01T05:57:13;4.85;;;4.45;;
32812;SDS011;19162;48.254;11.454;2023-02-01T06:00:13;6.07;;;5.20;;
32812;SDS011;19162;48.254;11.454;2023-02-01T06:03:13;5.27;;;4.87;;
32812;SDS011;19162;48.254;11.454;2023-02-01T06:06:13;4.65;;;4.25;;
32812;SDS011;19162;48.254;11.454;2023-02-01T06:09:13;5.60;;;5.20;;
32812;SDS011;19162;48.254;11.454;2023-02-01T06:12:14;4.60;;;4.20;;
32812;SDS011;19162;48.254;11.454;2023-02-01T06:15:14;5.07;;;4.63;;
32812;SDS011;19162;48.254;11.454;2023-02-01T06:18:18;4.40;;;4.00;;
32812;SDS011;19162;48.254;11.454;2023-02-01T06:21:18;5.68;;;5.28;;
32812;SDS011;19162;48.254;11.454;2023-02-01T06:24:23;5.95;;;4.93;;
32812;SDS011;19162;48.254;11.454;2023-02-01T06:27:23;5.40;;;5.00;;
32812;SDS011;19162;48.254;11.454;2023-02-01T06:30:23;5.68;;;5.20;;
32812;SDS011;19162;48.254;11.454;2023-02-01T06:33:24;5.60;;;5.10;;
32812;SDS011;19162;48.254;11.454;2023-02-01T06:36:25;5.82;;;5.32;;
32812;SDS011;19162;48.254;11.454;2023-02-01T06:39:25;5.40;;;4.90;;
32812;SDS011;19162;48.254;11.454;2023-02-01T06:42:27;5.07;;;4.67;;
32812;SDS011;19162;48.254;11.454;2023-02-01T06:45:27;5.57;;;5.07;;
32812;SDS011;19162;48.254;11.454;2023-02-01T06:48:31;5.18;;;4.78;;
32812;SDS011;19162;48.254;11.454;2023-02-01T06:51:31;5.53;;;5.07;;
32812;SDS011;19162;48.254;11.454;2023-02-01T06:54:31;5.67;;;5.03;;
32812;SDS011;19162;48.254;11.454;2023-02-01T06:57:33;5.30;;;4.90;;
32812;SDS011;19162;48.254;11.454;2023-02-01T07:00:35;5.20;;;4.88;;
32812;SDS011;19162;48.254;11.454;2023-02-01T07:03:36;5.43;;;5.03;;
32812;SDS011;19162;48.254;11.454;2023-02-01T07:06:36;6.17;;;5.57;;
32812;SDS011;19162;48.254;11.454;2023-02-01T07:09:36;5.47;;;4.97;;
32812;SDS011;19162;48.254;11.454;2023-02-01T07:12:36;5.35;;;4.85;;
32812;SDS011;19162;48.254;11.454;2023-02-01T07:15:36;5.10;;;4.70;;
32812;SDS011;19162;48.254;11.454;2023-02-01T07:18:37;5.65;;;5.15;;
32812;SDS011;19162;48.254;11.454;2023-02-01T07:21:37;4.93;;;4.53;;
32812;SDS011;19162;48.254;11.454;2023-02-01T07:24:37;4.43;;;4.03;;
32812;SDS011;19162;48.254;11.454;2023-02-01T07:27:37;4.90;;;4.45;;
32812;SDS011;19162;48.254;11.454;2023-02-01T07:30:38;4.87;;;4.50;;
32812;SDS011;19162;48.254;11.454;2023-02-01T07:33:38;4.93;;;3.90;;
32812;SDS011;19162;48.254;11.454;2023-02-01T07:36:38;5.77;;;5.20;;
32812;SDS011;19162;48.254;11.454;2023-02-01T07:39:38;4.07;;;3.77;;
32812;SDS011;19162;48.254;11.454;2023-02-01T07:42:38;4.80;;;4.40;;
32812;SDS011;19162;48.254;11.454;2023-02-01T07:45:39;8.50;;;7.95;;
32812;SDS011;19162;48.254;11.454;2023-02-01T07:48:39;8.63;;;7.85;;
32812;SDS011;19162;48.254;11.454;2023-02-01T07:51:39;11.95;;;10.88;;
32812;SDS011;19162;48.254;11.454;2023-02-01T07:54:39;6.90;;;6.40;;
32812;SDS011;19162;48.254;11.454;2023-02-01T07:57:39;4.93;;;4.53;;
32812;SDS011;19162;48.254;11.454;2023-02-01T08:00:39;7.53;;;6.83;;
32812;SDS011;19162;48.254;11.454;2023-02-01T08:03:59;6.65;;;6.15;;
32812;SDS011;19162;48.254;11.454;2023-02-01T08:07:00;5.80;;;5.20;;
32812;SDS011;19162;48.254;11.454;2023-02-01T08:10:00;14.43;;;13.03;;
32812;SDS011;19162;48.254;11.454;2023-02-01T08:13:01;15.25;;;13.60;;
32812;SDS011;19162;48.254;11.454;2023-02-01T08:16:03;4.00;;;3.70;;
32812;SDS011;19162;48.254;11.454;2023-02-01T08:19:03;4.55;;;4.15;;
32812;SDS011;19162;48.254;11.454;2023-02-01T08:22:03;4.05;;;3.75;;
32812;SDS011;19162;48.254;11.454;2023-02-01T08:25:06;4.47;;;4.07;;
32812;SDS011;19162;48.254;11.454;2023-02-01T08:28:07;3.83;;;3.40;;
32812;SDS011;19162;48.254;11.454;2023-02-01T08:31:08;10.05;;;9.05;;
32812;SDS011;19162;48.254;11.454;2023-02-01T08:34:09;5.93;;;5.43;;
32812;SDS011;19162;48.254;11.454;2023-02-01T08:37:09;4.10;;;3.43;;
32812;SDS011;19162;48.254;11.454;2023-02-01T08:40:10;3.07;;;2.87;;
32812;SDS011;19162;48.254;11.454;2023-02-01T08:43:10;4.65;;;4.10;;
32812;SDS011;19162;48.254;11.454;2023-02-01T08:46:10;4.10;;;3.70;;
32812;SDS011;19162;48.254;11.454;2023-02-01T08:49:11;4.03;;;3.58;;
32812;SDS011;19162;48.254;11.454;2023-02-01T08:52:11;4.17;;;3.30;;
32812;SDS011;19162;48.254;11.454;2023-02-01T08:55:12;4.23;;;3.83;;
32812;SDS011;19162;48.254;11.454;2023-02-01T08:58:13;3.97;;;3.55;;
32812;SDS011;19162;48.254;11.454;2023-02-01T09:01:14;4.60;;;4.20;;
32812;SDS011;19162;48.254;11.454;2023-02-01T09:04:15;4.05;;;3.65;;
32812;SDS011;19162;48.254;11.454;2023-02-01T09:07:15;4.27;;;3.87;;
32812;SDS011;19162;48.254;11.454;2023-02-01T09:10:16;3.35;;;3.05;;
32812;SDS011;19162;48.254;11.454;2023-02-01T09:13:16;4.03;;;3.73;;
32812;SDS011;19162;48.254;11.454;2023-02-01T09:16:17;3.40;;;3.10;;
32812;SDS011;19162;48.254;11.454;2023-02-01T09:19:17;3.75;;;3.40;;
32812;SDS011;19162;48.254;11.454;2023-02-01T09:22:17;5.20;;;3.28;;
32812;SDS011;19162;48.254;11.454;2023-02-01T09:25:18;3.47;;;3.23;;
32812;SDS011;19162;48.254;11.454;2023-02-01T09:28:18;5.53;;;3.50;;
32812;SDS011;19162;48.254;11.454;2023-02-01T09:31:19;2.97;;;2.78;;
32812;SDS011;19162;48.254;11.454;2023-02-01T09:34:19;3.23;;;3.00;;
32812;SDS011;19162;48.254;11.454;2023-02-01T09:37:19;5.33;;;3.07;;
32812;SDS011;19162;48.254;11.454;2023-02-01T09:40:20;5.28;;;3.45;;
32812;SDS011;19162;48.254;11.454;2023-02-01T09:46:30;2.85;;;2.65;;
32812;SDS011;19162;48.254;11.454;2023-02-01T09:49:36;3.40;;;3.10;;
32812;SDS011;19162;48.254;11.454;2023-02-01T09:52:38;3.78;;;3.38;;
32812;SDS011;19162;48.254;11.454;2023-02-01T09:55:43;3.28;;;3.08;;
32812;SDS011;19162;48.254;11.454;2023-02-01T09:59:01;3.50;;;3.25;;
32812;SDS011;19162;48.254;11.454;2023-02-01T10:02:08;4.05;;;3.00;;
32812;SDS011;19162;48.254;11.454;2023-02-01T10:05:15;3.67;;;3.22;;
32812;SDS011;19162;48.254;11.454;2023-02-01T10:24:25;3.50;;;3.20;;
32812;SDS011;19162;48.254;11.454;2023-02-01T10:27:37;3.67;;;2.85;;
32812;SDS011;19162;48.254;11.454;2023-02-01T10:30:41;3.20;;;2.90;;
32812;SDS011;19162;48.254;11.454;2023-02-01T10:33:50;4.13;;;2.85;;
32812;SDS011;19162;48.254;11.454;2023-02-01T10:36:59;3.53;;;3.22;;
32812;SDS011;19162;48.254;11.454;2023-02-01T10:40:02;3.60;;;3.38;;
32812;SDS011;19162;48.254;11.454;2023-02-01T10:43:05;3.03;;;2.72;;
32812;SDS011;19162;48.254;11.454;2023-02-01T10:46:06;3.37;;;2.83;;
32812;SDS011;19162;48.254;11.454;2023-02-01T10:49:09;4.75;;;2.72;;
32812;SDS011;19162;48.254;11.454;2023-02-01T10:55:29;3.30;;;2.95;;
32812;SDS011;19162;48.254;11.454;2023-02-01T10:58:31;2.75;;;2.55;;
32812;SDS011;19162;48.254;11.454;2023-02-01T11:01:35;3.33;;;3.03;;
32812;SDS011;19162;48.254;11.454;2023-02-01T11:04:37;3.45;;;3.15;;
32812;SDS011;19162;48.254;11.454;2023-02-01T11:07:38;3.87;;;2.83;;
32812;SDS011;19162;48.254;11.454;2023-02-01T11:10:40;3.15;;;2.85;;
32812;SDS011;19162;48.254;11.454;2023-02-01T11:13:40;3.55;;;3.25;;
32812;SDS011;19162;48.254;11.454;2023-02-01T11:16:41;3.20;;;2.75;;
32812;SDS011;19162;48.254;11.454;2023-02-01T11:19:47;2.83;;;2.63;;
32812;SDS011;19162;48.254;11.454;2023-02-01T11:22:55;4.32;;;2.92;;
32812;SDS011;19162;48.254;11.454;2023-02-01T11:26:00;3.28;;;2.97;;
32812;SDS011;19162;48.254;11.454;2023-02-01T11:29:05;3.08;;;2.88;;
32812;SDS011;19162;48.254;11.454;2023-02-01T11:32:09;3.85;;;3.03;;
32812;SDS011;19162;48.254;11.454;2023-02-01T11:35:11;3.75;;;3.45;;
32812;SDS011;19162;48.254;11.454;2023-02-01T11:38:20;3.92;;;3.63;;
32812;SDS011;19162;48.254;11.454;2023-02-01T11:41:25;3.47;;;3.20;;
32812;SDS011;19162;48.254;11.454;2023-02-01T11:47:38;4.22;;;3.83;;
32812;SDS011;19162;48.254;11.454;2023-02-01T11:50:42;4.85;;;3.78;;
32812;SDS011;19162;48.254;11.454;2023-02-01T11:53:58;4.00;;;3.70;;
32812;SDS011;19162;48.254;11.454;2023-02-01T11:57:25;3.80;;;3.47;;
32812;SDS011;19162;48.254;11.454;2023-02-01T12:00:44;4.55;;;4.15;;
32812;SDS011;19162;48.254;11.454;2023-02-01T12:03:58;4.40;;;4.00;;
32812;SDS011;19162;48.254;11.454;2023-02-01T12:07:45;4.65;;;4.25;;
32812;SDS011;19162;48.254;11.454;2023-02-01T12:13:34;4.43;;;3.55;;
32812;SDS011;19162;48.254;11.454;2023-02-01T12:26:34;3.72;;;3.42;;
32812;SDS011;19162;48.254;11.454;2023-02-01T12:29:50;4.18;;;3.55;;
32812;SDS011;19162;48.254;11.454;2023-02-01T12:33:02;4.55;;;3.35;;
32812;SDS011;19162;48.254;11.454;2023-02-01T12:36:25;5.57;;;3.40;;
32812;SDS011;19162;48.254;11.454;2023-02-01T12:39:30;4.50;;;3.10;;
32812;SDS011;19162;48.254;11.454;2023-02-01T12:42:38;4.28;;;2.97;;
32812;SDS011;19162;48.254;11.454;2023-02-01T12:45:45;4.80;;;3.00;;
32812;SDS011;19162;48.254;11.454;2023-02-01T12:48:50;6.50;;;3.63;;
32812;SDS011;19162;48.254;11.454;2023-02-01T12:52:00;5.15;;;3.00;;
32812;SDS011;19162;48.254;11.454;2023-02-01T12:58:15;8.93;;;8.02;;
32812;SDS011;19162;48.254;11.454;2023-02-01T13:01:21;8.32;;;7.63;;
32812;SDS011;19162;48.254;11.454;2023-02-01T13:04:27;8.38;;;5.88;;
32812;SDS011;19162;48.254;11.454;2023-02-01T13:07:49;7.03;;;4.93;;
32812;SDS011;19162;48.254;11.454;2023-02-01T13:10:54;4.97;;;4.45;;
32812;SDS011;19162;48.254;11.454;2023-02-01T13:17:14;6.20;;;3.58;;
32812;SDS011;19162;48.254;11.454;2023-02-01T13:26:24;3.78;;;3.35;;
32812;SDS011;19162;48.254;11.454;2023-02-01T13:29:25;4.00;;;3.10;;
32812;SDS011;19162;48.254;11.454;2023-02-01T13:45:17;3.60;;;3.30;;
32812;SDS011;19162;48.254;11.454;2023-02-01T13:48:21;4.20;;;3.40;;
32812;SDS011;19162;48.254;11.454;2023-02-01T13:51:56;3.50;;;3.20;;
32812;SDS011;19162;48.254;11.454;2023-02-01T13:54:49;3.03;;;2.72;;
32812;SDS011;19162;48.254;11.454;2023-02-01T13:58:04;2.90;;;2.65;;
32812;SDS011;19162;48.254;11.454;2023-02-01T14:04:44;3.63;;;2.78;;
32812;SDS011;19162;48.254;11.454;2023-02-01T14:08:46;3.55;;;2.70;;
32812;SDS011;19162;48.254;11.454;2023-02-01T14:11:34;3.17;;;2.60;;
32812;SDS011;19162;48.254;11.454;2023-02-01T14:17:35;3.42;;;2.80;;
32812;SDS011;19162;48.254;11.454;2023-02-01T14:23:41;3.45;;;3.20;;
32812;SDS011;19162;48.254;11.454;2023-02-01T14:26:45;3.33;;;3.03;;
32812;SDS011;19162;48.254;11.454;2023-02-01T14:29:56;3.75;;;3.45;;
32812;SDS011;19162;48.254;11.454;2023-02-01T14:32:58;3.97;;;3.60;;
32812;SDS011;19162;48.254;11.454;2023-02-01T14:39:04;4.65;;;3.35;;
32812;SDS011;19162;48.254;11.454;2023-02-01T14:42:06;5.82;;;3.05;;
32812;SDS011;19162;48.254;11.454;2023-02-01T14:51:24;3.92;;;2.88;;
32812;SDS011;19162;48.254;11.454;2023-02-01T14:54:25;2.97;;;2.37;;
32812;SDS011;19162;48.254;11.454;2023-02-01T14:57:26;5.05;;;2.75;;
32812;SDS011;19162;48.254;11.454;2023-02-01T15:00:29;4.30;;;2.85;;
32812;SDS011;19162;48.254;11.454;2023-02-01T15:09:34;4.70;;;2.95;;
32812;SDS011;19162;48.254;11.454;2023-02-01T15:12:36;3.20;;;2.65;;
32812;SDS011;19162;48.254;11.454;2023-02-01T15:15:40;4.95;;;2.65;;
32812;SDS011;19162;48.254;11.454;2023-02-01T15:18:40;4.03;;;2.50;;
32812;SDS011;19162;48.254;11.454;2023-02-01T15:21:48;6.30;;;2.45;;
32812;SDS011;19162;48.254;11.454;2023-02-01T15:24:52;4.03;;;2.72;;
32812;SDS011;19162;48.254;11.454;2023-02-01T15:27:53;4.85;;;2.97;;
32812;SDS011;19162;48.254;11.454;2023-02-01T15:30:57;5.38;;;3.45;;
32812;SDS011;19162;48.254;11.454;2023-02-01T15:33:58;5.70;;;3.72;;
32812;SDS011;19162;48.254;11.454;2023-02-01T15:37:03;5.37;;;3.50;;
32812;SDS011;19162;48.254;11.454;2023-02-01T15:40:05;5.85;;;3.35;;
32812;SDS011;19162;48.254;11.454;2023-02-01T15:43:11;4.28;;;2.83;;
32812;SDS011;19162;48.254;11.454;2023-02-01T15:46:13;5.10;;;3.30;;
32812;SDS011;19162;48.254;11.454;2023-02-01T15:49:22;6.75;;;3.85;;
32812;SDS011;19162;48.254;11.454;2023-02-01T15:58:34;4.40;;;2.83;;
32812;SDS011;19162;48.254;11.454;2023-02-01T16:01:37;3.85;;;2.35;;
32812;SDS011;19162;48.254;11.454;2023-02-01T16:04:46;3.53;;;1.73;;
32812;SDS011;19162;48.254;11.454;2023-02-01T16:07:53;3.72;;;2.28;;
32812;SDS011;19162;48.254;11.454;2023-02-01T16:10:59;4.18;;;2.20;;
32812;SDS011;19162;48.254;11.454;2023-02-01T16:14:01;6.45;;;3.30;;
32812;SDS011;19162;48.254;11.454;2023-02-01T16:17:01;8.23;;;3.63;;
32812;SDS011;19162;48.254;11.454;2023-02-01T16:20:02;5.97;;;2.95;;
32812;SDS011;19162;48.254;11.454;2023-02-01T16:23:03;7.07;;;2.70;;
32812;SDS011;19162;48.254;11.454;2023-02-01T16:26:04;5.15;;;3.47;;
32812;SDS011;19162;48.254;11.454;2023-02-01T16:29:04;4.15;;;2.30;;
32812;SDS011;19162;48.254;11.454;2023-02-01T16:32:06;5.70;;;2.80;;
32812;SDS011;19162;48.254;11.454;2023-02-01T16:35:20;3.63;;;2.50;;
32812;SDS011;19162;48.254;11.454;2023-02-01T16:38:21;5.15;;;2.63;;
32812;SDS011;19162;48.254;11.454;2023-02-01T16:41:22;6.65;;;2.58;;
32812;SDS011;19162;48.254;11.454;2023-02-01T16:44:23;5.40;;;2.20;;
32812;SDS011;19162;48.254;11.454;2023-02-01T16:47:24;3.53;;;2.00;;
32812;SDS011;19162;48.254;11.454;2023-02-01T16:50:25;5.57;;;2.97;;
32812;SDS011;19162;48.254;11.454;2023-02-01T16:53:26;5.40;;;2.65;;
32812;SDS011;19162;48.254;11.454;2023-02-01T16:56:31;3.72;;;2.60;;
32812;SDS011;19162;48.254;11.454;2023-02-01T16:59:31;4.05;;;2.50;;
32812;SDS011;19162;48.254;11.454;2023-02-01T17:02:32;5.75;;;2.55;;
32812;SDS011;19162;48.254;11.454;2023-02-01T17:05:32;5.55;;;2.90;;
32812;SDS011;19162;48.254;11.454;2023-02-01T17:08:34;3.60;;;2.83;;
32812;SDS011;19162;48.254;11.454;2023-02-01T17:11:34;4.88;;;3.45;;
32812;SDS011;19162;48.254;11.454;2023-02-01T17:14:38;9.33;;;4.00;;
32812;SDS011;19162;48.254;11.454;2023-02-01T17:17:40;5.88;;;2.97;;
32812;SDS011;19162;48.254;11.454;2023-02-01T17:20:42;3.97;;;2.60;;
32812;SDS011;19162;48.254;11.454;2023-02-01T17:23:42;6.55;;;4.07;;
32812;SDS011;19162;48.254;11.454;2023-02-01T17:26:43;3.73;;;3.03;;
32812;SDS011;19162;48.254;11.454;2023-02-01T17:29:44;5.60;;;3.78;;
32812;SDS011;19162;48.254;11.454;2023-02-01T17:32:45;8.77;;;3.78;;
32812;SDS011;19162;48.254;11.454;2023-02-01T17:35:46;7.95;;;3.13;;
32812;SDS011;19162;48.254;11.454;2023-02-01T17:38:47;6.05;;;3.22;;
32812;SDS011;19162;48.254;11.454;2023-02-01T17:41:47;7.00;;;2.75;;
32812;SDS011;19162;48.254;11.454;2023-02-01T17:44:48;5.35;;;2.83;;
32812;SDS011;19162;48.254;11.454;2023-02-01T17:47:48;6.00;;;3.42;;
32812;SDS011;19162;48.254;11.454;2023-02-01T17:50:49;3.50;;;2.57;;
32812;SDS011;19162;48.254;11.454;2023-02-01T17:53:53;3.33;;;2.10;;
32812;SDS011;19162;48.254;11.454;2023-02-01T17:56:53;5.50;;;2.95;;
32812;SDS011;19162;48.254;11.454;2023-02-01T17:59:54;7.03;;;3.33;;
32812;SDS011;19162;48.254;11.454;2023-02-01T18:02:54;8.55;;;3.47;;
32812;SDS011;19162;48.254;11.454;2023-02-01T18:05:56;7.60;;;3.50;;
32812;SDS011;19162;48.254;11.454;2023-02-01T18:08:56;4.93;;;3.22;;
32812;SDS011;19162;48.254;11.454;2023-02-01T18:11:57;7.82;;;3.17;;
32812;SDS011;19162;48.254;11.454;2023-02-01T18:14:57;5.57;;;2.92;;
32812;SDS011;19162;48.254;11.454;2023-02-01T18:17:57;10.80;;;3.70;;
32812;SDS011;19162;48.254;11.454;2023-02-01T18:20:58;5.80;;;2.55;;
32812;SDS011;19162;48.254;11.454;2023-02-01T18:24:02;6.80;;;3.13;;
32812;SDS011;19162;48.254;11.454;2023-02-01T18:27:02;9.27;;;3.67;;
32812;SDS011;19162;48.254;11.454;2023-02-01T18:30:03;10.80;;;6.67;;
32812;SDS011;19162;48.254;11.454;2023-02-01T18:33:05;7.55;;;3.90;;
32812;SDS011;19162;48.254;11.454;2023-02-01T18:36:07;11.95;;;7.15;;
32812;SDS011;19162;48.254;11.454;2023-02-01T18:39:08;10.82;;;8.27;;
32812;SDS011;19162;48.254;11.454;2023-02-01T18:42:10;8.25;;;5.07;;
32812;SDS011;19162;48.254;11.454;2023-02-01T18:48:23;6.40;;;3.35;;
32812;SDS011;19162;48.254;11.454;2023-02-01T18:51:23;8.38;;;6.18;;
32812;SDS011;19162;48.254;11.454;2023-02-01T18:54:24;9.07;;;5.70;;
32812;SDS011;19162;48.254;11.454;2023-02-01T18:57:24;21.00;;;18.77;;
32812;SDS011;19162;48.254;11.454;2023-02-01T19:00:24;11.40;;;7.30;;
32812;SDS011;19162;48.254;11.454;2023-02-01T19:03:24;13.40;;;10.60;;
32812;SDS011;19162;48.254;11.454;2023-02-01T19:06:25;10.32;;;4.07;;
32812;SDS011;19162;48.254;11.454;2023-02-01T19:09:26;17.42;;;11.90;;
32812;SDS011;19162;48.254;11.454;2023-02-01T19:12:27;14.10;;;9.35;;
32812;SDS011;19162;48.254;11.454;2023-02-01T19:15:27;38.17;;;25.98;;
32812;SDS011;19162;48.254;11.454;2023-02-01T19:18:28;22.73;;;13.85;;
32812;SDS011;19162;48.254;11.454;2023-02-01T19:21:28;15.93;;;10.38;;
32812;SDS011;19162;48.254;11.454;2023-02-01T19:24:28;19.55;;;10.23;;
32812;SDS011;19162;48.254;11.454;2023-02-01T19:27:29;8.10;;;4.75;;
32812;SDS011;19162;48.254;11.454;2023-02-01T19:30:29;13.80;;;8.90;;
32812;SDS011;19162;48.254;11.454;2023-02-01T19:47:44;7.80;;;3.97;;
32812;SDS011;19162;48.254;11.454;2023-02-01T19:55:02;7.80;;;4.28;;
32812;SDS011;19162;48.254;11.454;2023-02-01T19:59:00;8.07;;;4.88;;
32812;SDS011;19162;48.254;11.454;2023-02-01T20:02:47;6.97;;;3.15;;
32812;SDS011;19162;48.254;11.454;2023-02-01T20:06:15;6.60;;;3.00;;
32812;SDS011;19162;48.254;11.454;2023-02-01T20:13:02;6.70;;;2.97;;
32812;SDS011;19162;48.254;11.454;2023-02-01T20:19:30;4.80;;;3.45;;
32812;SDS011;19162;48.254;11.454;2023-02-01T20:22:49;6.78;;;2.63;;
32812;SDS011;19162;48.254;11.454;2023-02-01T20:26:13;5.70;;;2.50;;
32812;SDS011;19162;48.254;11.454;2023-02-01T20:33:00;7.57;;;2.78;;
32812;SDS011;19162;48.254;11.454;2023-02-01T20:36:04;6.03;;;3.08;;
32812;SDS011;19162;48.254;11.454;2023-02-01T20:39:07;8.02;;;3.15;;
32812;SDS011;19162;48.254;11.454;2023-02-01T20:42:07;6.68;;;3.20;;
32812;SDS011;19162;48.254;11.454;2023-02-01T20:45:08;5.82;;;2.75;;
32812;SDS011;19162;48.254;11.454;2023-02-01T20:48:08;5.35;;;2.65;;
32812;SDS011;19162;48.254;11.454;2023-02-01T20:51:09;6.65;;;3.25;;